sensor_id;sensor_type;location;lat;lon;timestamp;P1;durP1;ratioP1;P2;durP2;ratioP2
51090;SDS011;37136;43.614;3.908;2022-07-19T00:02:03;9.77;;;7.90;;
51090;SDS011;37136;43.614;3.908;2022-07-19T00:04:30;8.90;;;8.00;;
51090;SDS011;37136;43.614;3.908;2022-07-19T00:06:56;9.00;;;7.40;;
51090;SDS011;37136;43.614;3.908;2022-07-19T00:09:22;8.90;;;7.50;;
51090;SDS011;37136;43.614;3.908;2022-07-19T00:11:48;13.07;;;7.97;;
51090;SDS011;37136;43.614;3.908;2022-07-19T00:14:14;9.68;;;8.13;;
51090;SDS011;37136;43.614;3.908;2022-07-19T00:16:41;9.23;;;8.20;;
51090;SDS011;37136;43.614;3.908;2022-07-19T00:19:06;15.32;;;8.38;;
51090;SDS011;37136;43.614;3.908;2022-07-19T00:21:32;14.57;;;8.38;;
51090;SDS011;37136;43.614;3.908;2022-07-19T00:23:58;10.65;;;8.50;;
51090;SDS011;37136;43.614;3.908;2022-07-19T00:26:26;17.15;;;8.77;;
51090;SDS011;37136;43.614;3.908;2022-07-19T00:28:52;13.75;;;8.07;;
51090;SDS011;37136;43.614;3.908;2022-07-19T00:31:23;9.50;;;8.60;;
51090;SDS011;37136;43.614;3.908;2022-07-19T00:33:50;10.85;;;7.90;;
51090;SDS011;37136;43.614;3.908;2022-07-19T00:36:16;11.95;;;9.30;;
51090;SDS011;37136;43.614;3.908;2022-07-19T00:38:42;11.70;;;9.18;;
51090;SDS011;37136;43.614;3.908;2022-07-19T00:41:08;12.57;;;9.90;;
51090;SDS011;37136;43.614;3.908;2022-07-19T00:43:35;16.98;;;10.05;;
51090;SDS011;37136;43.614;3.908;2022-07-19T00:46:01;9.80;;;8.80;;
51090;SDS011;37136;43.614;3.908;2022-07-19T00:48:26;8.95;;;8.05;;
51090;SDS011;37136;43.614;3.908;2022-07-19T00:50:53;10.10;;;8.43;;
51090;SDS011;37136;43.614;3.908;2022-07-19T00:53:19;10.00;;;9.00;;
51090;SDS011;37136;43.614;3.908;2022-07-19T00:55:45;10.00;;;9.00;;
51090;SDS011;37136;43.614;3.908;2022-07-19T00:58:11;11.07;;;8.20;;
51090;SDS011;37136;43.614;3.908;2022-07-19T01:00:40;20.25;;;9.13;;
51090;SDS011;37136;43.614;3.908;2022-07-19T01:03:07;9.43;;;8.57;;
51090;SDS011;37136;43.614;3.908;2022-07-19T01:05:33;13.60;;;9.25;;
51090;SDS011;37136;43.614;3.908;2022-07-19T01:07:59;11.93;;;9.15;;
51090;SDS011;37136;43.614;3.908;2022-07-19T01:10:25;12.77;;;9.05;;
51090;SDS011;37136;43.614;3.908;2022-07-19T01:12:52;13.32;;;9.23;;
51090;SDS011;37136;43.614;3.908;2022-07-19T01:15:20;12.73;;;10.13;;
51090;SDS011;37136;43.614;3.908;2022-07-19T01:17:49;12.32;;;9.65;;
51090;SDS011;37136;43.614;3.908;2022-07-19T01:20:16;11.73;;;8.95;;
51090;SDS011;37136;43.614;3.908;2022-07-19T01:22:43;11.80;;;9.82;;
51090;SDS011;37136;43.614;3.908;2022-07-19T01:25:10;11.30;;;8.52;;
51090;SDS011;37136;43.614;3.908;2022-07-19T01:27:54;16.40;;;9.30;;
51090;SDS011;37136;43.614;3.908;2022-07-19T01:30:21;11.68;;;9.05;;
51090;SDS011;37136;43.614;3.908;2022-07-19T01:32:50;12.57;;;9.52;;
51090;SDS011;37136;43.614;3.908;2022-07-19T01:35:16;14.63;;;9.20;;
51090;SDS011;37136;43.614;3.908;2022-07-19T01:37:43;10.48;;;8.68;;
51090;SDS011;37136;43.614;3.908;2022-07-19T01:40:10;9.43;;;8.27;;
51090;SDS011;37136;43.614;3.908;2022-07-19T01:42:37;9.63;;;8.60;;
51090;SDS011;37136;43.614;3.908;2022-07-19T01:45:04;10.30;;;8.52;;
51090;SDS011;37136;43.614;3.908;2022-07-19T01:47:31;14.32;;;9.73;;
51090;SDS011;37136;43.614;3.908;2022-07-19T01:49:56;11.57;;;9.07;;
51090;SDS011;37136;43.614;3.908;2022-07-19T01:52:22;12.07;;;8.65;;
51090;SDS011;37136;43.614;3.908;2022-07-19T01:54:48;11.48;;;9.23;;
51090;SDS011;37136;43.614;3.908;2022-07-19T01:59:43;11.18;;;9.60;;
51090;SDS011;37136;43.614;3.908;2022-07-19T02:02:09;12.18;;;9.50;;
51090;SDS011;37136;43.614;3.908;2022-07-19T02:04:35;13.23;;;9.35;;
51090;SDS011;37136;43.614;3.908;2022-07-19T02:07:00;11.77;;;10.32;;
51090;SDS011;37136;43.614;3.908;2022-07-19T02:09:27;13.10;;;9.30;;
51090;SDS011;37136;43.614;3.908;2022-07-19T02:11:52;10.68;;;9.65;;
51090;SDS011;37136;43.614;3.908;2022-07-19T02:14:18;10.25;;;9.25;;
51090;SDS011;37136;43.614;3.908;2022-07-19T02:16:44;11.82;;;9.40;;
51090;SDS011;37136;43.614;3.908;2022-07-19T02:19:10;11.38;;;8.50;;
51090;SDS011;37136;43.614;3.908;2022-07-19T02:21:37;12.65;;;10.27;;
51090;SDS011;37136;43.614;3.908;2022-07-19T02:24:04;10.65;;;9.43;;
51090;SDS011;37136;43.614;3.908;2022-07-19T02:26:35;12.20;;;10.32;;
51090;SDS011;37136;43.614;3.908;2022-07-19T02:29:01;10.85;;;9.65;;
51090;SDS011;37136;43.614;3.908;2022-07-19T02:31:27;13.18;;;10.25;;
51090;SDS011;37136;43.614;3.908;2022-07-19T02:33:53;11.90;;;10.75;;
51090;SDS011;37136;43.614;3.908;2022-07-19T02:36:19;12.07;;;10.88;;
51090;SDS011;37136;43.614;3.908;2022-07-19T02:38:44;12.13;;;10.93;;
51090;SDS011;37136;43.614;3.908;2022-07-19T02:41:11;15.38;;;11.80;;
51090;SDS011;37136;43.614;3.908;2022-07-19T02:43:36;14.60;;;10.40;;
51090;SDS011;37136;43.614;3.908;2022-07-19T02:46:02;16.00;;;10.73;;
51090;SDS011;37136;43.614;3.908;2022-07-19T02:48:28;11.60;;;10.50;;
51090;SDS011;37136;43.614;3.908;2022-07-19T02:50:54;11.45;;;10.35;;
51090;SDS011;37136;43.614;3.908;2022-07-19T02:53:20;16.75;;;12.52;;
51090;SDS011;37136;43.614;3.908;2022-07-19T02:55:45;15.13;;;11.55;;
51090;SDS011;37136;43.614;3.908;2022-07-19T02:58:11;14.68;;;12.02;;
51090;SDS011;37136;43.614;3.908;2022-07-19T03:00:37;12.25;;;10.95;;
51090;SDS011;37136;43.614;3.908;2022-07-19T03:03:03;11.40;;;10.20;;
51090;SDS011;37136;43.614;3.908;2022-07-19T03:05:47;15.13;;;11.27;;
51090;SDS011;37136;43.614;3.908;2022-07-19T03:08:14;12.27;;;11.07;;
51090;SDS011;37136;43.614;3.908;2022-07-19T03:10:40;13.85;;;10.80;;
51090;SDS011;37136;43.614;3.908;2022-07-19T03:13:06;14.57;;;12.13;;
51090;SDS011;37136;43.614;3.908;2022-07-19T03:15:34;13.13;;;12.00;;
51090;SDS011;37136;43.614;3.908;2022-07-19T03:18:02;14.88;;;13.25;;
51090;SDS011;37136;43.614;3.908;2022-07-19T03:20:28;18.02;;;13.75;;
51090;SDS011;37136;43.614;3.908;2022-07-19T03:22:54;16.48;;;14.30;;
51090;SDS011;37136;43.614;3.908;2022-07-19T03:25:20;16.05;;;14.45;;
51090;SDS011;37136;43.614;3.908;2022-07-19T03:27:46;16.40;;;14.60;;
51090;SDS011;37136;43.614;3.908;2022-07-19T03:30:13;20.55;;;16.65;;
51090;SDS011;37136;43.614;3.908;2022-07-19T03:32:39;28.20;;;19.83;;
51090;SDS011;37136;43.614;3.908;2022-07-19T03:35:05;26.25;;;19.38;;
51090;SDS011;37136;43.614;3.908;2022-07-19T03:37:32;30.88;;;19.27;;
51090;SDS011;37136;43.614;3.908;2022-07-19T03:39:57;41.67;;;19.65;;
51090;SDS011;37136;43.614;3.908;2022-07-19T03:42:23;29.90;;;18.45;;
51090;SDS011;37136;43.614;3.908;2022-07-19T03:44:49;25.05;;;17.33;;
51090;SDS011;37136;43.614;3.908;2022-07-19T03:47:15;33.30;;;14.10;;
51090;SDS011;37136;43.614;3.908;2022-07-19T03:49:40;64.10;;;17.38;;
51090;SDS011;37136;43.614;3.908;2022-07-19T03:52:06;26.77;;;16.58;;
51090;SDS011;37136;43.614;3.908;2022-07-19T03:54:32;23.80;;;16.42;;
51090;SDS011;37136;43.614;3.908;2022-07-19T03:56:58;59.42;;;18.52;;
51090;SDS011;37136;43.614;3.908;2022-07-19T03:59:24;67.35;;;18.33;;
51090;SDS011;37136;43.614;3.908;2022-07-19T04:01:50;30.90;;;18.48;;
51090;SDS011;37136;43.614;3.908;2022-07-19T04:04:16;24.00;;;17.33;;
51090;SDS011;37136;43.614;3.908;2022-07-19T04:06:42;25.42;;;17.60;;
51090;SDS011;37136;43.614;3.908;2022-07-19T04:09:08;26.45;;;16.52;;
51090;SDS011;37136;43.614;3.908;2022-07-19T04:11:34;25.25;;;16.90;;
51090;SDS011;37136;43.614;3.908;2022-07-19T04:14:00;20.48;;;16.23;;
51090;SDS011;37136;43.614;3.908;2022-07-19T04:16:26;18.27;;;15.25;;
51090;SDS011;37136;43.614;3.908;2022-07-19T04:18:52;20.55;;;15.48;;
51090;SDS011;37136;43.614;3.908;2022-07-19T04:21:17;20.33;;;15.82;;
51090;SDS011;37136;43.614;3.908;2022-07-19T04:23:43;17.65;;;14.73;;
51090;SDS011;37136;43.614;3.908;2022-07-19T04:26:09;23.10;;;17.13;;
51090;SDS011;37136;43.614;3.908;2022-07-19T04:28:35;23.65;;;16.55;;
51090;SDS011;37136;43.614;3.908;2022-07-19T04:31:01;27.48;;;18.38;;
51090;SDS011;37136;43.614;3.908;2022-07-19T04:33:27;29.38;;;19.75;;
51090;SDS011;37136;43.614;3.908;2022-07-19T04:35:52;25.83;;;17.85;;
51090;SDS011;37136;43.614;3.908;2022-07-19T04:38:19;21.73;;;17.90;;
51090;SDS011;37136;43.614;3.908;2022-07-19T04:40:45;24.70;;;17.85;;
51090;SDS011;37136;43.614;3.908;2022-07-19T04:43:11;18.50;;;15.65;;
51090;SDS011;37136;43.614;3.908;2022-07-19T04:45:37;23.02;;;15.90;;
51090;SDS011;37136;43.614;3.908;2022-07-19T04:48:04;23.17;;;17.65;;
51090;SDS011;37136;43.614;3.908;2022-07-19T04:50:30;22.42;;;17.65;;
51090;SDS011;37136;43.614;3.908;2022-07-19T04:52:56;22.00;;;16.60;;
51090;SDS011;37136;43.614;3.908;2022-07-19T04:55:22;21.88;;;15.60;;
51090;SDS011;37136;43.614;3.908;2022-07-19T04:57:48;19.23;;;15.82;;
51090;SDS011;37136;43.614;3.908;2022-07-19T05:00:14;20.00;;;16.25;;
51090;SDS011;37136;43.614;3.908;2022-07-19T05:02:40;21.80;;;15.20;;
51090;SDS011;37136;43.614;3.908;2022-07-19T05:05:05;15.70;;;14.10;;
51090;SDS011;37136;43.614;3.908;2022-07-19T05:07:31;15.57;;;13.07;;
51090;SDS011;37136;43.614;3.908;2022-07-19T05:09:57;25.58;;;13.95;;
51090;SDS011;37136;43.614;3.908;2022-07-19T05:12:23;16.00;;;14.30;;
51090;SDS011;37136;43.614;3.908;2022-07-19T05:14:49;13.85;;;12.35;;
51090;SDS011;37136;43.614;3.908;2022-07-19T05:17:15;18.95;;;12.82;;
51090;SDS011;37136;43.614;3.908;2022-07-19T05:19:41;16.27;;;13.68;;
51090;SDS011;37136;43.614;3.908;2022-07-19T05:22:07;16.38;;;12.63;;
51090;SDS011;37136;43.614;3.908;2022-07-19T05:24:32;37.53;;;15.85;;
51090;SDS011;37136;43.614;3.908;2022-07-19T05:26:58;17.25;;;13.60;;
51090;SDS011;37136;43.614;3.908;2022-07-19T05:29:24;15.68;;;13.60;;
51090;SDS011;37136;43.614;3.908;2022-07-19T05:31:50;13.95;;;12.45;;
51090;SDS011;37136;43.614;3.908;2022-07-19T05:34:16;13.82;;;12.43;;
51090;SDS011;37136;43.614;3.908;2022-07-19T05:36:41;13.82;;;12.00;;
51090;SDS011;37136;43.614;3.908;2022-07-19T05:39:07;15.00;;;12.05;;
51090;SDS011;37136;43.614;3.908;2022-07-19T05:41:33;15.73;;;11.77;;
51090;SDS011;37136;43.614;3.908;2022-07-19T05:43:59;15.98;;;11.82;;
51090;SDS011;37136;43.614;3.908;2022-07-19T05:46:25;15.40;;;9.15;;
51090;SDS011;37136;43.614;3.908;2022-07-19T05:48:50;9.25;;;8.35;;
51090;SDS011;37136;43.614;3.908;2022-07-19T05:51:16;11.48;;;9.20;;
51090;SDS011;37136;43.614;3.908;2022-07-19T05:53:42;12.13;;;8.45;;
51090;SDS011;37136;43.614;3.908;2022-07-19T05:56:08;9.93;;;7.97;;
51090;SDS011;37136;43.614;3.908;2022-07-19T05:58:34;7.75;;;7.13;;
51090;SDS011;37136;43.614;3.908;2022-07-19T06:01:01;10.30;;;8.45;;
51090;SDS011;37136;43.614;3.908;2022-07-19T06:03:46;10.80;;;7.93;;
51090;SDS011;37136;43.614;3.908;2022-07-19T06:06:14;7.43;;;6.82;;
51090;SDS011;37136;43.614;3.908;2022-07-19T06:08:40;8.40;;;6.85;;
51090;SDS011;37136;43.614;3.908;2022-07-19T06:11:07;11.88;;;8.35;;
51090;SDS011;37136;43.614;3.908;2022-07-19T06:13:32;11.95;;;8.80;;
51090;SDS011;37136;43.614;3.908;2022-07-19T06:15:59;10.23;;;8.68;;
51090;SDS011;37136;43.614;3.908;2022-07-19T06:18:24;151.63;;;13.93;;
51090;SDS011;37136;43.614;3.908;2022-07-19T06:20:50;11.93;;;8.30;;
51090;SDS011;37136;43.614;3.908;2022-07-19T06:23:16;9.98;;;8.35;;
51090;SDS011;37136;43.614;3.908;2022-07-19T06:25:42;13.98;;;8.05;;
51090;SDS011;37136;43.614;3.908;2022-07-19T06:28:07;16.13;;;9.25;;
51090;SDS011;37136;43.614;3.908;2022-07-19T06:30:33;16.23;;;9.30;;
51090;SDS011;37136;43.614;3.908;2022-07-19T06:32:59;13.35;;;9.23;;
51090;SDS011;37136;43.614;3.908;2022-07-19T06:35:25;13.73;;;8.15;;
51090;SDS011;37136;43.614;3.908;2022-07-19T06:37:51;7.82;;;7.03;;
51090;SDS011;37136;43.614;3.908;2022-07-19T06:40:16;17.52;;;7.38;;
51090;SDS011;37136;43.614;3.908;2022-07-19T06:42:42;11.90;;;8.25;;
51090;SDS011;37136;43.614;3.908;2022-07-19T06:45:08;10.68;;;8.00;;
51090;SDS011;37136;43.614;3.908;2022-07-19T06:47:34;13.75;;;9.40;;
51090;SDS011;37136;43.614;3.908;2022-07-19T06:50:00;13.52;;;9.20;;
51090;SDS011;37136;43.614;3.908;2022-07-19T06:52:26;9.95;;;8.20;;
51090;SDS011;37136;43.614;3.908;2022-07-19T06:54:52;10.88;;;8.77;;
51090;SDS011;37136;43.614;3.908;2022-07-19T06:57:17;12.60;;;8.27;;
51090;SDS011;37136;43.614;3.908;2022-07-19T06:59:43;16.27;;;7.50;;
51090;SDS011;37136;43.614;3.908;2022-07-19T07:02:09;22.50;;;7.93;;
51090;SDS011;37136;43.614;3.908;2022-07-19T07:04:35;14.00;;;9.40;;
51090;SDS011;37136;43.614;3.908;2022-07-19T07:07:01;14.63;;;8.63;;
51090;SDS011;37136;43.614;3.908;2022-07-19T07:09:26;14.02;;;9.50;;
51090;SDS011;37136;43.614;3.908;2022-07-19T07:11:52;18.95;;;11.27;;
51090;SDS011;37136;43.614;3.908;2022-07-19T07:14:18;13.23;;;8.88;;
51090;SDS011;37136;43.614;3.908;2022-07-19T07:16:43;15.20;;;8.45;;
51090;SDS011;37136;43.614;3.908;2022-07-19T07:19:09;14.68;;;8.25;;
51090;SDS011;37136;43.614;3.908;2022-07-19T07:21:35;17.20;;;8.32;;
51090;SDS011;37136;43.614;3.908;2022-07-19T07:24:01;10.88;;;7.72;;
51090;SDS011;37136;43.614;3.908;2022-07-19T07:26:27;14.48;;;7.65;;
51090;SDS011;37136;43.614;3.908;2022-07-19T07:28:53;11.98;;;7.50;;
51090;SDS011;37136;43.614;3.908;2022-07-19T07:31:19;14.68;;;8.38;;
51090;SDS011;37136;43.614;3.908;2022-07-19T07:33:44;10.75;;;7.68;;
51090;SDS011;37136;43.614;3.908;2022-07-19T07:36:10;13.00;;;6.82;;
51090;SDS011;37136;43.614;3.908;2022-07-19T07:38:36;8.90;;;6.45;;
51090;SDS011;37136;43.614;3.908;2022-07-19T07:41:05;8.75;;;6.35;;
51090;SDS011;37136;43.614;3.908;2022-07-19T07:43:31;9.98;;;5.97;;
51090;SDS011;37136;43.614;3.908;2022-07-19T07:45:57;6.72;;;5.88;;
51090;SDS011;37136;43.614;3.908;2022-07-19T07:48:23;29.48;;;7.18;;
51090;SDS011;37136;43.614;3.908;2022-07-19T07:50:49;12.20;;;6.82;;
51090;SDS011;37136;43.614;3.908;2022-07-19T07:53:14;11.73;;;5.97;;
51090;SDS011;37136;43.614;3.908;2022-07-19T07:55:40;12.30;;;5.60;;
51090;SDS011;37136;43.614;3.908;2022-07-19T07:58:07;15.88;;;6.32;;
51090;SDS011;37136;43.614;3.908;2022-07-19T08:00:34;12.77;;;6.15;;
51090;SDS011;37136;43.614;3.908;2022-07-19T08:03:01;16.27;;;6.75;;
51090;SDS011;37136;43.614;3.908;2022-07-19T08:05:27;22.90;;;5.93;;
51090;SDS011;37136;43.614;3.908;2022-07-19T08:07:53;25.30;;;5.60;;
51090;SDS011;37136;43.614;3.908;2022-07-19T08:10:19;13.98;;;6.10;;
51090;SDS011;37136;43.614;3.908;2022-07-19T08:12:51;21.95;;;5.68;;
51090;SDS011;37136;43.614;3.908;2022-07-19T08:15:17;23.55;;;6.10;;
51090;SDS011;37136;43.614;3.908;2022-07-19T08:17:43;18.33;;;5.95;;
51090;SDS011;37136;43.614;3.908;2022-07-19T08:20:09;9.80;;;5.30;;
51090;SDS011;37136;43.614;3.908;2022-07-19T08:22:35;9.02;;;5.10;;
51090;SDS011;37136;43.614;3.908;2022-07-19T08:25:01;8.85;;;4.60;;
51090;SDS011;37136;43.614;3.908;2022-07-19T08:27:28;6.93;;;4.65;;
51090;SDS011;37136;43.614;3.908;2022-07-19T08:29:54;13.38;;;5.70;;
51090;SDS011;37136;43.614;3.908;2022-07-19T08:32:20;6.75;;;5.55;;
51090;SDS011;37136;43.614;3.908;2022-07-19T08:34:45;10.60;;;5.00;;
51090;SDS011;37136;43.614;3.908;2022-07-19T08:37:11;8.93;;;5.55;;
51090;SDS011;37136;43.614;3.908;2022-07-19T08:39:37;9.57;;;5.47;;
51090;SDS011;37136;43.614;3.908;2022-07-19T08:42:03;7.50;;;5.50;;
51090;SDS011;37136;43.614;3.908;2022-07-19T08:44:29;11.93;;;5.75;;
51090;SDS011;37136;43.614;3.908;2022-07-19T08:46:57;10.82;;;5.40;;
51090;SDS011;37136;43.614;3.908;2022-07-19T08:49:25;10.60;;;5.80;;
51090;SDS011;37136;43.614;3.908;2022-07-19T08:51:50;9.82;;;5.65;;
51090;SDS011;37136;43.614;3.908;2022-07-19T08:54:17;9.82;;;5.35;;
51090;SDS011;37136;43.614;3.908;2022-07-19T08:56:44;7.10;;;4.53;;
51090;SDS011;37136;43.614;3.908;2022-07-19T08:59:29;6.15;;;4.68;;
51090;SDS011;37136;43.614;3.908;2022-07-19T09:01:56;6.00;;;4.90;;
51090;SDS011;37136;43.614;3.908;2022-07-19T09:04:22;10.43;;;4.72;;
51090;SDS011;37136;43.614;3.908;2022-07-19T09:06:51;9.57;;;4.90;;
51090;SDS011;37136;43.614;3.908;2022-07-19T09:09:19;10.20;;;5.00;;
51090;SDS011;37136;43.614;3.908;2022-07-19T09:11:55;9.95;;;4.50;;
51090;SDS011;37136;43.614;3.908;2022-07-19T09:14:26;6.10;;;5.13;;
51090;SDS011;37136;43.614;3.908;2022-07-19T09:19:35;12.43;;;5.40;;
51090;SDS011;37136;43.614;3.908;2022-07-19T09:22:13;10.77;;;5.25;;
51090;SDS011;37136;43.614;3.908;2022-07-19T09:24:44;17.65;;;5.80;;
51090;SDS011;37136;43.614;3.908;2022-07-19T09:27:21;28.77;;;8.23;;
51090;SDS011;37136;43.614;3.908;2022-07-19T09:29:53;31.35;;;6.75;;
51090;SDS011;37136;43.614;3.908;2022-07-19T09:32:22;17.83;;;7.25;;
51090;SDS011;37136;43.614;3.908;2022-07-19T09:34:56;9.23;;;5.60;;
51090;SDS011;37136;43.614;3.908;2022-07-19T09:37:24;15.07;;;5.85;;
51090;SDS011;37136;43.614;3.908;2022-07-19T09:39:56;9.15;;;4.68;;
51090;SDS011;37136;43.614;3.908;2022-07-19T09:42:43;8.02;;;3.65;;
51090;SDS011;37136;43.614;3.908;2022-07-19T09:45:10;9.27;;;4.33;;
51090;SDS011;37136;43.614;3.908;2022-07-19T09:47:45;9.85;;;4.18;;
51090;SDS011;37136;43.614;3.908;2022-07-19T09:50:16;13.60;;;4.32;;
51090;SDS011;37136;43.614;3.908;2022-07-19T09:52:44;5.78;;;3.45;;
51090;SDS011;37136;43.614;3.908;2022-07-19T09:55:11;6.00;;;3.50;;
51090;SDS011;37136;43.614;3.908;2022-07-19T09:57:50;5.60;;;3.53;;
51090;SDS011;37136;43.614;3.908;2022-07-19T10:00:18;10.02;;;3.55;;
51090;SDS011;37136;43.614;3.908;2022-07-19T10:02:52;10.32;;;3.70;;
51090;SDS011;37136;43.614;3.908;2022-07-19T10:05:20;5.00;;;3.58;;
51090;SDS011;37136;43.614;3.908;2022-07-19T10:07:47;5.85;;;4.07;;
51090;SDS011;37136;43.614;3.908;2022-07-19T10:10:14;8.80;;;3.58;;
51090;SDS011;37136;43.614;3.908;2022-07-19T10:12:42;7.45;;;2.92;;
51090;SDS011;37136;43.614;3.908;2022-07-19T10:15:10;9.07;;;3.03;;
51090;SDS011;37136;43.614;3.908;2022-07-19T10:17:39;8.48;;;2.80;;
51090;SDS011;37136;43.614;3.908;2022-07-19T10:20:09;5.95;;;3.42;;
51090;SDS011;37136;43.614;3.908;2022-07-19T10:22:40;9.68;;;2.92;;
51090;SDS011;37136;43.614;3.908;2022-07-19T10:25:18;14.35;;;3.70;;
51090;SDS011;37136;43.614;3.908;2022-07-19T10:27:53;7.47;;;3.20;;
51090;SDS011;37136;43.614;3.908;2022-07-19T10:30:23;11.95;;;3.33;;
51090;SDS011;37136;43.614;3.908;2022-07-19T10:32:51;4.47;;;3.30;;
51090;SDS011;37136;43.614;3.908;2022-07-19T10:43:19;8.52;;;3.03;;
51090;SDS011;37136;43.614;3.908;2022-07-19T10:51:29;6.43;;;3.22;;
51090;SDS011;37136;43.614;3.908;2022-07-19T10:54:07;4.72;;;2.63;;
51090;SDS011;37136;43.614;3.908;2022-07-19T10:56:40;4.25;;;2.97;;
51090;SDS011;37136;43.614;3.908;2022-07-19T10:59:29;4.07;;;2.88;;
51090;SDS011;37136;43.614;3.908;2022-07-19T11:01:57;3.15;;;2.85;;
51090;SDS011;37136;43.614;3.908;2022-07-19T11:04:32;8.95;;;3.15;;
51090;SDS011;37136;43.614;3.908;2022-07-19T11:09:49;8.68;;;3.17;;
51090;SDS011;37136;43.614;3.908;2022-07-19T11:12:33;8.55;;;3.13;;
51090;SDS011;37136;43.614;3.908;2022-07-19T11:15:02;3.53;;;3.20;;
51090;SDS011;37136;43.614;3.908;2022-07-19T11:17:31;7.50;;;2.72;;
51090;SDS011;37136;43.614;3.908;2022-07-19T11:22:37;7.03;;;2.47;;
51090;SDS011;37136;43.614;3.908;2022-07-19T11:25:06;6.70;;;2.70;;
51090;SDS011;37136;43.614;3.908;2022-07-19T11:27:34;7.90;;;2.85;;
51090;SDS011;37136;43.614;3.908;2022-07-19T11:30:02;4.20;;;2.33;;
51090;SDS011;37136;43.614;3.908;2022-07-19T11:32:30;6.78;;;2.67;;
51090;SDS011;37136;43.614;3.908;2022-07-19T11:34:57;6.07;;;2.38;;
51090;SDS011;37136;43.614;3.908;2022-07-19T11:37:25;3.83;;;2.10;;
51090;SDS011;37136;43.614;3.908;2022-07-19T11:39:54;5.85;;;2.22;;
51090;SDS011;37136;43.614;3.908;2022-07-19T11:47:45;13.65;;;2.38;;
51090;SDS011;37136;43.614;3.908;2022-07-19T11:50:16;5.45;;;2.40;;
51090;SDS011;37136;43.614;3.908;2022-07-19T11:53:05;26.63;;;3.35;;
51090;SDS011;37136;43.614;3.908;2022-07-19T11:55:36;10.85;;;3.25;;
51090;SDS011;37136;43.614;3.908;2022-07-19T11:58:06;11.90;;;3.03;;
51090;SDS011;37136;43.614;3.908;2022-07-19T12:00:34;14.30;;;2.78;;
51090;SDS011;37136;43.614;3.908;2022-07-19T12:03:06;3.55;;;1.88;;
51090;SDS011;37136;43.614;3.908;2022-07-19T12:05:34;4.05;;;1.92;;
51090;SDS011;37136;43.614;3.908;2022-07-19T12:08:03;5.75;;;2.13;;
51090;SDS011;37136;43.614;3.908;2022-07-19T12:13:06;3.58;;;2.20;;
51090;SDS011;37136;43.614;3.908;2022-07-19T12:18:12;2.53;;;1.90;;
51090;SDS011;37136;43.614;3.908;2022-07-19T12:20:39;4.18;;;2.22;;
51090;SDS011;37136;43.614;3.908;2022-07-19T12:23:12;2.83;;;2.10;;
51090;SDS011;37136;43.614;3.908;2022-07-19T12:25:41;8.15;;;1.92;;
51090;SDS011;37136;43.614;3.908;2022-07-19T12:28:07;6.60;;;2.00;;
51090;SDS011;37136;43.614;3.908;2022-07-19T12:30:34;2.95;;;2.05;;
51090;SDS011;37136;43.614;3.908;2022-07-19T12:33:33;5.68;;;2.05;;
51090;SDS011;37136;43.614;3.908;2022-07-19T12:35:51;6.90;;;2.25;;
51090;SDS011;37136;43.614;3.908;2022-07-19T12:38:26;6.68;;;1.90;;
51090;SDS011;37136;43.614;3.908;2022-07-19T12:41:04;4.50;;;2.13;;
51090;SDS011;37136;43.614;3.908;2022-07-19T12:43:31;3.50;;;1.90;;
51090;SDS011;37136;43.614;3.908;2022-07-19T12:45:58;6.35;;;1.80;;
51090;SDS011;37136;43.614;3.908;2022-07-19T12:48:28;4.60;;;2.00;;
51090;SDS011;37136;43.614;3.908;2022-07-19T12:50:54;9.45;;;2.55;;
51090;SDS011;37136;43.614;3.908;2022-07-19T12:53:20;6.05;;;2.28;;
51090;SDS011;37136;43.614;3.908;2022-07-19T12:55:47;16.90;;;2.67;;
51090;SDS011;37136;43.614;3.908;2022-07-19T12:58:15;22.23;;;2.47;;
51090;SDS011;37136;43.614;3.908;2022-07-19T13:01:00;20.45;;;3.25;;
51090;SDS011;37136;43.614;3.908;2022-07-19T13:03:26;27.85;;;3.28;;
51090;SDS011;37136;43.614;3.908;2022-07-19T13:05:52;4.10;;;2.33;;
51090;SDS011;37136;43.614;3.908;2022-07-19T13:08:17;4.65;;;2.10;;
51090;SDS011;37136;43.614;3.908;2022-07-19T13:10:43;8.70;;;1.90;;
51090;SDS011;37136;43.614;3.908;2022-07-19T13:13:09;6.35;;;2.88;;
51090;SDS011;37136;43.614;3.908;2022-07-19T13:15:35;7.07;;;2.28;;
51090;SDS011;37136;43.614;3.908;2022-07-19T13:18:01;7.63;;;2.58;;
51090;SDS011;37136;43.614;3.908;2022-07-19T13:20:27;5.47;;;2.40;;
51090;SDS011;37136;43.614;3.908;2022-07-19T13:22:53;5.63;;;2.90;;
51090;SDS011;37136;43.614;3.908;2022-07-19T13:25:19;7.13;;;2.38;;
51090;SDS011;37136;43.614;3.908;2022-07-19T13:27:46;4.90;;;2.38;;
51090;SDS011;37136;43.614;3.908;2022-07-19T13:30:11;3.78;;;2.00;;
51090;SDS011;37136;43.614;3.908;2022-07-19T13:32:38;3.90;;;2.08;;
51090;SDS011;37136;43.614;3.908;2022-07-19T13:35:05;9.60;;;2.30;;
51090;SDS011;37136;43.614;3.908;2022-07-19T13:37:31;8.38;;;2.88;;
51090;SDS011;37136;43.614;3.908;2022-07-19T13:39:57;3.35;;;2.40;;
51090;SDS011;37136;43.614;3.908;2022-07-19T13:42:22;4.22;;;2.42;;
51090;SDS011;37136;43.614;3.908;2022-07-19T13:44:49;2.50;;;2.15;;
51090;SDS011;37136;43.614;3.908;2022-07-19T13:47:14;3.92;;;2.03;;
51090;SDS011;37136;43.614;3.908;2022-07-19T13:49:40;11.50;;;2.20;;
51090;SDS011;37136;43.614;3.908;2022-07-19T13:52:06;6.75;;;2.38;;
51090;SDS011;37136;43.614;3.908;2022-07-19T13:54:31;3.88;;;1.83;;
51090;SDS011;37136;43.614;3.908;2022-07-19T13:56:57;7.18;;;2.13;;
51090;SDS011;37136;43.614;3.908;2022-07-19T13:59:23;8.38;;;2.20;;
51090;SDS011;37136;43.614;3.908;2022-07-19T14:01:49;5.93;;;2.00;;
51090;SDS011;37136;43.614;3.908;2022-07-19T14:04:15;7.47;;;2.33;;
51090;SDS011;37136;43.614;3.908;2022-07-19T14:06:41;6.38;;;2.42;;
51090;SDS011;37136;43.614;3.908;2022-07-19T14:09:06;4.47;;;2.58;;
51090;SDS011;37136;43.614;3.908;2022-07-19T14:11:32;12.85;;;2.40;;
51090;SDS011;37136;43.614;3.908;2022-07-19T14:14:00;4.70;;;2.20;;
51090;SDS011;37136;43.614;3.908;2022-07-19T14:16:26;8.70;;;2.53;;
51090;SDS011;37136;43.614;3.908;2022-07-19T14:18:52;4.97;;;2.10;;
51090;SDS011;37136;43.614;3.908;2022-07-19T14:21:17;6.80;;;2.20;;
51090;SDS011;37136;43.614;3.908;2022-07-19T14:23:44;5.82;;;2.20;;
51090;SDS011;37136;43.614;3.908;2022-07-19T14:26:09;10.18;;;2.60;;
51090;SDS011;37136;43.614;3.908;2022-07-19T14:28:35;5.47;;;1.90;;
51090;SDS011;37136;43.614;3.908;2022-07-19T14:31:01;4.60;;;2.10;;
51090;SDS011;37136;43.614;3.908;2022-07-19T14:33:27;10.40;;;2.60;;
51090;SDS011;37136;43.614;3.908;2022-07-19T14:35:52;8.50;;;2.25;;
51090;SDS011;37136;43.614;3.908;2022-07-19T14:38:18;4.40;;;2.15;;
51090;SDS011;37136;43.614;3.908;2022-07-19T14:40:44;7.63;;;2.58;;
51090;SDS011;37136;43.614;3.908;2022-07-19T14:43:10;7.63;;;2.15;;
51090;SDS011;37136;43.614;3.908;2022-07-19T14:45:36;4.65;;;2.20;;
51090;SDS011;37136;43.614;3.908;2022-07-19T14:48:02;6.30;;;2.20;;
51090;SDS011;37136;43.614;3.908;2022-07-19T14:50:28;2.97;;;2.33;;
51090;SDS011;37136;43.614;3.908;2022-07-19T14:52:53;3.40;;;2.03;;
51090;SDS011;37136;43.614;3.908;2022-07-19T14:55:19;2.35;;;2.15;;
51090;SDS011;37136;43.614;3.908;2022-07-19T14:57:45;5.97;;;2.35;;
51090;SDS011;37136;43.614;3.908;2022-07-19T15:00:11;4.80;;;2.35;;
51090;SDS011;37136;43.614;3.908;2022-07-19T15:02:40;5.47;;;2.50;;
51090;SDS011;37136;43.614;3.908;2022-07-19T15:05:07;6.07;;;2.70;;
51090;SDS011;37136;43.614;3.908;2022-07-19T15:07:33;4.68;;;2.47;;
51090;SDS011;37136;43.614;3.908;2022-07-19T15:09:59;3.13;;;2.75;;
51090;SDS011;37136;43.614;3.908;2022-07-19T15:12:25;3.55;;;2.50;;